createdAt,value
2018-07-01T00:00:32.255Z,1009.47
2018-07-01T00:01:32.233Z,1009.48
2018-07-01T00:02:32.220Z,1009.49
2018-07-01T00:03:32.215Z,1009.51
2018-07-01T00:04:32.198Z,1009.49
2018-07-01T00:05:32.206Z,1009.54
2018-07-01T00:06:32.176Z,1009.55
2018-07-01T00:07:32.165Z,1009.51
2018-07-01T00:08:32.157Z,1009.59
2018-07-01T00:09:32.144Z,1009.57
2018-07-01T00:10:32.147Z,1009.54
2018-07-01T00:11:32.122Z,1009.57
2018-07-01T00:12:32.114Z,1009.57
2018-07-01T00:13:32.102Z,1009.60
2018-07-01T00:14:32.096Z,1009.57
2018-07-01T00:15:32.092Z,1009.62
2018-07-01T00:16:32.070Z,1009.63
2018-07-01T00:17:32.061Z,1009.58
2018-07-01T00:18:32.047Z,1009.69
2018-07-01T00:19:32.035Z,1009.64
2018-07-01T00:20:32.039Z,1009.64
2018-07-01T00:21:32.015Z,1009.66
2018-07-01T00:22:32.003Z,1009.68
2018-07-01T00:23:31.992Z,1009.67
2018-07-01T00:24:31.982Z,1009.68
2018-07-01T00:25:31.981Z,1009.71
2018-07-01T00:26:31.962Z,1009.73
2018-07-01T00:27:31.950Z,1009.69
2018-07-01T00:28:31.940Z,1009.68
2018-07-01T00:29:31.929Z,1009.72
2018-07-01T00:30:31.932Z,1009.70
2018-07-01T00:31:31.905Z,1009.71
2018-07-01T00:32:31.898Z,1009.71
2018-07-01T00:33:31.883Z,1009.76
2018-07-01T00:34:31.874Z,1009.75
2018-07-01T00:35:31.876Z,1009.76
2018-07-01T00:36:31.853Z,1009.81
2018-07-01T00:37:31.843Z,1009.78
2018-07-01T00:38:31.834Z,1009.81
2018-07-01T00:39:31.822Z,1009.79
2018-07-01T00:40:31.842Z,1009.76
2018-07-01T00:41:31.796Z,1009.76
2018-07-01T00:42:31.787Z,1009.77
2018-07-01T00:43:31.780Z,1009.75
2018-07-01T00:44:31.769Z,1009.81
2018-07-01T00:45:31.755Z,1009.74
2018-07-01T00:46:31.755Z,1009.78
2018-07-01T00:47:31.734Z,1009.76
2018-07-01T00:48:31.723Z,1009.74
2018-07-01T00:49:31.713Z,1009.76
2018-07-01T00:50:31.700Z,1009.74
2018-07-01T00:51:31.702Z,1009.76
2018-07-01T00:52:31.681Z,1009.78
2018-07-01T00:53:31.668Z,1009.76
2018-07-01T00:54:31.656Z,1009.77
2018-07-01T00:55:31.647Z,1009.76
2018-07-01T00:56:31.651Z,1009.74
2018-07-01T00:57:31.627Z,1009.76
2018-07-01T00:58:31.617Z,1009.74
2018-07-01T00:59:31.610Z,1009.75
2018-07-01T01:00:31.597Z,1009.72
2018-07-01T01:01:31.582Z,1009.71
2018-07-01T01:02:31.583Z,1009.70
2018-07-01T01:03:31.565Z,1009.68
2018-07-01T01:04:31.549Z,1009.73
2018-07-01T01:05:31.540Z,1009.74
2018-07-01T01:06:31.530Z,1009.74
2018-07-01T01:07:31.533Z,1009.76
2018-07-01T01:08:31.506Z,1009.73
2018-07-01T01:09:31.499Z,1009.74
2018-07-01T01:10:31.490Z,1009.75
2018-07-01T01:11:31.475Z,1009.78
2018-07-01T01:12:31.491Z,1009.82
2018-07-01T01:13:31.454Z,1009.80
2018-07-01T01:14:31.442Z,1009.83
2018-07-01T01:15:31.434Z,1009.81
2018-07-01T01:16:31.430Z,1009.81
2018-07-01T01:17:31.426Z,1009.83
2018-07-01T01:18:31.401Z,1009.82
2018-07-01T01:19:31.419Z,1009.85
2018-07-01T01:20:31.378Z,1009.80
2018-07-01T01:21:31.367Z,1009.85
2018-07-01T01:22:31.366Z,1009.85
2018-07-01T01:23:31.344Z,1009.89
2018-07-01T01:24:31.335Z,1009.82
2018-07-01T01:25:31.324Z,1009.84
2018-07-01T01:26:31.322Z,1009.83
2018-07-01T01:27:31.314Z,1009.85
2018-07-01T01:28:31.289Z,1009.85
2018-07-01T01:29:31.279Z,1009.85
2018-07-01T01:30:31.271Z,1009.85
2018-07-01T01:31:31.259Z,1009.85
2018-07-01T01:32:31.261Z,1009.83
2018-07-01T01:33:31.240Z,1009.85
2018-07-01T01:34:31.250Z,1009.85
2018-07-01T01:35:31.215Z,1009.83
2018-07-01T01:36:31.204Z,1009.82
2018-07-01T01:37:31.219Z,1009.86
2018-07-01T01:38:31.184Z,1009.86
2018-07-01T01:39:31.170Z,1009.85
2018-07-01T01:40:31.163Z,1009.85
2018-07-01T01:41:31.151Z,1009.89
2018-07-01T01:42:31.171Z,1009.85
2018-07-01T01:43:31.142Z,1009.90
2018-07-01T01:44:31.119Z,1009.89
2018-07-01T01:45:31.105Z,1009.87
2018-07-01T01:46:31.095Z,1009.87
2018-07-01T01:47:31.088Z,1009.89
2018-07-01T01:48:31.093Z,1009.87
2018-07-01T01:49:31.094Z,1009.88
2018-07-01T01:50:31.051Z,1009.85
2018-07-01T01:51:31.041Z,1009.86
2018-07-01T01:52:31.028Z,1009.85
2018-07-01T01:53:31.032Z,1009.83
2018-07-01T01:54:31.012Z,1009.87
2018-07-01T01:55:30.997Z,1009.87
2018-07-01T01:56:30.983Z,1009.83
2018-07-01T01:57:30.974Z,1009.81
2018-07-01T01:58:30.980Z,1009.77
2018-07-01T01:59:30.955Z,1009.82
2018-07-01T02:00:30.953Z,1009.83
2018-07-01T02:01:30.929Z,1009.80
2018-07-01T02:02:30.918Z,1009.80
2018-07-01T02:03:30.907Z,1009.79
2018-07-01T02:04:30.915Z,1009.81
2018-07-01T02:05:30.887Z,1009.80
2018-07-01T02:06:30.874Z,1009.77
2018-07-01T02:07:30.861Z,1009.76
2018-07-01T02:08:30.854Z,1009.80
2018-07-01T02:09:30.854Z,1009.80
2018-07-01T02:10:30.829Z,1009.84
2018-07-01T02:11:30.816Z,1009.81
2018-07-01T02:12:30.807Z,1009.84
2018-07-01T02:13:30.795Z,1009.79
2018-07-01T02:14:30.799Z,1009.80
2018-07-01T02:15:30.772Z,1009.76
2018-07-01T02:16:30.762Z,1009.77
2018-07-01T02:17:30.767Z,1009.75
2018-07-01T02:18:30.738Z,1009.76
2018-07-01T02:19:30.742Z,1009.77
2018-07-01T02:20:30.718Z,1009.76
2018-07-01T02:21:30.707Z,1009.78
2018-07-01T02:22:30.694Z,1009.79
2018-07-01T02:23:30.684Z,1009.79
2018-07-01T02:24:30.685Z,1009.82
2018-07-01T02:25:30.661Z,1009.85
2018-07-01T02:26:30.649Z,1009.84
2018-07-01T02:27:30.638Z,1009.85
2018-07-01T02:28:30.629Z,1009.83
2018-07-01T02:29:30.629Z,1009.90
2018-07-01T02:30:30.606Z,1009.89
2018-07-01T02:31:30.594Z,1009.91
2018-07-01T02:32:30.583Z,1009.87
2018-07-01T02:33:30.573Z,1009.93
2018-07-01T02:34:30.577Z,1009.94
2018-07-01T02:35:30.747Z,1009.92
2018-07-01T02:36:30.538Z,1009.87
2018-07-01T02:37:30.526Z,1009.91
2018-07-01T02:38:30.515Z,1009.86
2018-07-01T02:39:30.507Z,1009.89
2018-07-01T02:40:30.532Z,1009.96
2018-07-01T02:41:30.481Z,1009.98
2018-07-01T02:42:30.472Z,1010.01
2018-07-01T02:43:30.466Z,1009.95
2018-07-01T02:44:30.451Z,1010.04
2018-07-01T02:45:30.452Z,1010.06
2018-07-01T02:46:30.427Z,1010.00
2018-07-01T02:47:30.416Z,1010.05
2018-07-01T02:48:30.409Z,1010.05
2018-07-01T02:49:30.394Z,1010.03
2018-07-01T02:50:30.401Z,1010.06
2018-07-01T02:51:30.377Z,1010.07
2018-07-01T02:52:30.361Z,1010.04
2018-07-01T02:53:30.350Z,1010.09
2018-07-01T02:54:30.339Z,1010.07
2018-07-01T02:55:30.328Z,1010.06
2018-07-01T02:56:30.335Z,1010.06
2018-07-01T02:57:30.311Z,1010.05
2018-07-01T02:58:30.297Z,1010.05
2018-07-01T02:59:30.287Z,1010.11
2018-07-01T03:00:30.274Z,1010.06
2018-07-01T03:01:30.276Z,1010.07
2018-07-01T03:02:30.255Z,1010.10
2018-07-01T03:03:30.246Z,1010.07
2018-07-01T03:04:30.231Z,1010.11
2018-07-01T03:05:30.220Z,1010.09
2018-07-01T03:06:30.224Z,1010.14
2018-07-01T03:07:30.198Z,1010.09
2018-07-01T03:08:30.191Z,1010.06
2018-07-01T03:09:30.178Z,1010.09
2018-07-01T03:10:30.166Z,1010.10
2018-07-01T03:11:30.191Z,1010.11
2018-07-01T03:12:30.150Z,1010.11
2018-07-01T03:13:30.136Z,1010.14
2018-07-01T03:14:30.126Z,1010.15
2018-07-01T03:15:30.114Z,1010.11
2018-07-01T03:16:30.103Z,1010.12
2018-07-01T03:17:30.106Z,1010.13
2018-07-01T03:18:30.083Z,1010.11
2018-07-01T03:19:30.081Z,1010.12
2018-07-01T03:20:30.064Z,1010.08
2018-07-01T03:21:30.049Z,1010.07
2018-07-01T03:22:30.053Z,1010.04
2018-07-01T03:23:30.037Z,1010.05
2018-07-01T03:24:30.021Z,1010.08
2018-07-01T03:25:30.007Z,1010.09
2018-07-01T03:26:29.996Z,1010.12
2018-07-01T03:27:30.028Z,1010.15
2018-07-01T03:28:29.976Z,1010.16
2018-07-01T03:29:29.964Z,1010.16
2018-07-01T03:30:29.956Z,1010.19
2018-07-01T03:31:29.959Z,1010.18
2018-07-01T03:32:29.933Z,1010.20
2018-07-01T03:33:29.934Z,1010.19
2018-07-01T03:34:29.913Z,1010.17
2018-07-01T03:35:29.902Z,1010.18
2018-07-01T03:36:29.892Z,1010.18
2018-07-01T03:37:29.879Z,1010.20
2018-07-01T03:38:29.881Z,1010.24
2018-07-01T03:39:29.858Z,1010.20
2018-07-01T03:40:29.849Z,1010.19
2018-07-01T03:41:29.836Z,1010.20
2018-07-01T03:42:29.828Z,1010.18
2018-07-01T03:43:29.834Z,1010.20
2018-07-01T03:44:29.809Z,1010.18
2018-07-01T03:45:29.796Z,1010.13
2018-07-01T03:46:29.785Z,1010.13
2018-07-01T03:47:29.773Z,1010.17
2018-07-01T03:48:29.766Z,1010.16
2018-07-01T03:49:29.768Z,1010.20
2018-07-01T03:50:29.743Z,1010.21
2018-07-01T03:51:29.731Z,1010.21
2018-07-01T03:52:29.719Z,1010.20
2018-07-01T03:53:29.708Z,1010.14
2018-07-01T03:54:29.715Z,1010.20
2018-07-01T03:55:29.689Z,1010.21
2018-07-01T03:56:29.675Z,1010.21
2018-07-01T03:57:29.663Z,1010.24
2018-07-01T03:58:29.652Z,1010.24
2018-07-01T03:59:29.674Z,1010.17
2018-07-01T04:00:29.697Z,1010.19
2018-07-01T04:01:29.623Z,1010.17
2018-07-01T04:02:29.608Z,1010.12
2018-07-01T04:03:29.597Z,1010.15
2018-07-01T04:04:29.586Z,1010.18
2018-07-01T04:05:29.598Z,1010.19
2018-07-01T04:06:29.565Z,1010.27
2018-07-01T04:07:29.553Z,1010.27
2018-07-01T04:08:29.544Z,1010.29
2018-07-01T04:09:29.532Z,1010.29
2018-07-01T04:10:29.535Z,1010.30
2018-07-01T04:11:29.512Z,1010.26
2018-07-01T04:12:29.502Z,1010.30
2018-07-01T04:13:29.490Z,1010.31
2018-07-01T04:14:29.481Z,1010.29
2018-07-01T04:15:29.524Z,1010.26
2018-07-01T04:16:29.461Z,1010.27
2018-07-01T04:17:29.451Z,1010.22
2018-07-01T04:18:29.437Z,1010.24
2018-07-01T04:19:29.425Z,1010.27
2018-07-01T04:20:29.429Z,1010.29
2018-07-01T04:21:29.401Z,1010.33
2018-07-01T04:22:29.391Z,1010.35
2018-07-01T04:23:29.382Z,1010.32
2018-07-01T04:24:29.369Z,1010.33
2018-07-01T04:25:29.372Z,1010.31
2018-07-01T04:26:29.349Z,1010.29
2018-07-01T04:27:29.337Z,1010.30
2018-07-01T04:28:29.326Z,1010.27
2018-07-01T04:29:29.316Z,1010.30
2018-07-01T04:30:29.320Z,1010.32
2018-07-01T04:31:29.295Z,1010.33
2018-07-01T04:32:29.282Z,1010.39
2018-07-01T04:33:29.275Z,1010.38
2018-07-01T04:34:29.263Z,1010.38
2018-07-01T04:35:29.269Z,1010.39
2018-07-01T04:36:29.245Z,1010.44
2018-07-01T04:37:29.226Z,1010.40
2018-07-01T04:38:29.216Z,1010.39
2018-07-01T04:39:29.206Z,1010.42
2018-07-01T04:40:29.193Z,1010.40
2018-07-01T04:41:29.199Z,1010.33
2018-07-01T04:42:29.173Z,1010.31
2018-07-01T04:43:29.162Z,1010.31
2018-07-01T04:44:29.150Z,1010.29
2018-07-01T04:45:29.139Z,1010.26
2018-07-01T04:46:29.146Z,1010.31
2018-07-01T04:47:29.127Z,1010.36
2018-07-01T04:48:29.109Z,1010.33
2018-07-01T04:49:29.097Z,1010.36
2018-07-01T04:50:29.090Z,1010.39
2018-07-01T04:51:29.079Z,1010.34
2018-07-01T04:52:29.088Z,1010.39
2018-07-01T04:53:29.060Z,1010.33
2018-07-01T04:54:29.043Z,1010.39
2018-07-01T04:55:29.034Z,1010.34
2018-07-01T04:56:29.021Z,1010.35
2018-07-01T04:57:29.035Z,1010.34
2018-07-01T04:58:28.999Z,1010.33
2018-07-01T04:59:28.989Z,1010.31
2018-07-01T05:00:28.978Z,1010.30
2018-07-01T05:01:28.971Z,1010.35
2018-07-01T05:02:29.097Z,1010.38
2018-07-01T05:03:28.952Z,1010.40
2018-07-01T05:04:28.935Z,1010.41
2018-07-01T05:05:28.926Z,1010.42
2018-07-01T05:06:28.915Z,1010.38
2018-07-01T05:07:28.919Z,1010.37
2018-07-01T05:08:28.891Z,1010.35
2018-07-01T05:09:28.885Z,1010.33
2018-07-01T05:10:28.870Z,1010.35
2018-07-01T05:11:28.859Z,1010.33
2018-07-01T05:12:28.866Z,1010.33
2018-07-01T05:13:28.837Z,1010.32
2018-07-01T05:14:28.828Z,1010.22
2018-07-01T05:15:28.817Z,1010.28
2018-07-01T05:16:28.806Z,1010.29
2018-07-01T05:17:28.795Z,1010.32
2018-07-01T05:18:28.799Z,1010.29
2018-07-01T05:19:28.774Z,1010.30
2018-07-01T05:20:28.762Z,1010.32
2018-07-01T05:21:28.752Z,1010.37
2018-07-01T05:22:28.738Z,1010.34
2018-07-01T05:23:28.744Z,1010.40
2018-07-01T05:24:28.720Z,1010.38
2018-07-01T05:25:28.708Z,1010.42
2018-07-01T05:26:28.697Z,1010.44
2018-07-01T05:27:28.689Z,1010.41
2018-07-01T05:28:28.687Z,1010.43
2018-07-01T05:29:28.674Z,1010.48
2018-07-01T05:30:28.655Z,1010.46
2018-07-01T05:31:28.643Z,1010.44
2018-07-01T05:32:28.633Z,1010.47
2018-07-01T05:33:28.640Z,1010.51
2018-07-01T05:34:28.612Z,1010.51
2018-07-01T05:35:28.603Z,1010.54
2018-07-01T05:36:28.591Z,1010.55
2018-07-01T05:37:28.584Z,1010.50
2018-07-01T05:38:28.589Z,1010.55
2018-07-01T05:39:28.559Z,1010.57
2018-07-01T05:40:28.549Z,1010.52
2018-07-01T05:41:28.545Z,1010.58
2018-07-01T05:42:28.531Z,1010.58
2018-07-01T05:43:28.522Z,1010.58
2018-07-01T05:44:28.520Z,1010.61
2018-07-01T05:45:28.499Z,1010.57
2018-07-01T05:46:28.485Z,1010.54
2018-07-01T05:47:28.477Z,1010.54
2018-07-01T05:48:28.465Z,1010.56
2018-07-01T05:49:28.530Z,1010.54
2018-07-01T05:50:28.449Z,1010.59
2018-07-01T05:51:28.436Z,1010.50
2018-07-01T05:52:28.423Z,1010.54
2018-07-01T05:53:28.414Z,1010.64
2018-07-01T05:54:28.418Z,1010.58
2018-07-01T05:55:28.392Z,1010.61
2018-07-01T05:56:28.390Z,1010.65
2018-07-01T05:57:28.371Z,1010.67
2018-07-01T05:58:28.362Z,1010.65
2018-07-01T05:59:28.362Z,1010.66
2018-07-01T06:00:28.341Z,1010.63
2018-07-01T06:01:28.333Z,1010.68
2018-07-01T06:02:28.319Z,1010.62
2018-07-01T06:03:28.311Z,1010.65
2018-07-01T06:04:28.310Z,1010.62
2018-07-01T06:05:28.287Z,1010.66
2018-07-01T06:06:28.278Z,1010.65
2018-07-01T06:07:28.268Z,1010.70
2018-07-01T06:08:28.257Z,1010.70
2018-07-01T06:09:28.281Z,1010.73
2018-07-01T06:10:28.234Z,1010.69
2018-07-01T06:11:28.226Z,1010.75
2018-07-01T06:12:28.214Z,1010.79
2018-07-01T06:13:28.207Z,1010.75
2018-07-01T06:14:28.193Z,1010.76
2018-07-01T06:15:28.194Z,1010.77
2018-07-01T06:16:28.185Z,1010.81
2018-07-01T06:17:28.163Z,1010.82
2018-07-01T06:18:28.152Z,1010.87
2018-07-01T06:19:28.142Z,1010.83
2018-07-01T06:20:28.142Z,1010.84
2018-07-01T06:21:28.123Z,1010.92
2018-07-01T06:22:28.118Z,1010.92
2018-07-01T06:23:28.102Z,1010.92
2018-07-01T06:24:28.096Z,1010.93
2018-07-01T06:25:28.106Z,1010.87
2018-07-01T06:26:28.070Z,1010.95
2018-07-01T06:27:28.061Z,1010.94
2018-07-01T06:28:28.050Z,1010.88
2018-07-01T06:29:28.039Z,1010.86
2018-07-01T06:30:28.034Z,1010.89
2018-07-01T06:31:28.034Z,1010.95
2018-07-01T06:32:28.009Z,1010.97
2018-07-01T06:33:27.998Z,1010.98
2018-07-01T06:34:27.989Z,1011.02
2018-07-01T06:35:27.976Z,1011.01
2018-07-01T06:36:27.982Z,1011.10
2018-07-01T06:37:27.957Z,1011.06
2018-07-01T06:38:27.951Z,1011.13
2018-07-01T06:39:27.936Z,1011.12
2018-07-01T06:40:27.924Z,1011.11
2018-07-01T06:41:27.952Z,1011.14
2018-07-01T06:42:27.908Z,1011.15
2018-07-01T06:43:27.898Z,1011.20
2018-07-01T06:44:27.884Z,1011.19
2018-07-01T06:45:27.875Z,1011.22
2018-07-01T06:46:27.863Z,1011.16
2018-07-01T06:47:27.869Z,1011.21
2018-07-01T06:48:27.846Z,1011.22
2018-07-01T06:49:27.841Z,1011.23
2018-07-01T06:50:27.826Z,1011.30
2018-07-01T06:51:27.813Z,1011.30
2018-07-01T06:52:27.835Z,1011.25
2018-07-01T06:53:27.793Z,1011.33
2018-07-01T06:54:27.783Z,1011.28
2018-07-01T06:55:27.781Z,1011.17
2018-07-01T06:56:27.833Z,1011.23
2018-07-01T06:57:27.757Z,1011.19
2018-07-01T06:58:27.760Z,1011.31
2018-07-01T06:59:27.738Z,1011.29
2018-07-01T07:00:27.725Z,1011.36
2018-07-01T07:01:27.714Z,1011.39
2018-07-01T07:02:27.714Z,1011.32
2018-07-01T07:03:27.713Z,1011.40
2018-07-01T07:04:27.685Z,1011.30
2018-07-01T07:05:27.675Z,1011.38
2018-07-01T07:06:27.667Z,1011.41
2018-07-01T07:07:27.658Z,1011.38
2018-07-01T07:08:27.654Z,1011.25
2018-07-01T07:09:27.649Z,1011.35
2018-07-01T07:10:27.627Z,1011.38
2018-07-01T07:11:27.649Z,1011.36
2018-07-01T07:12:27.604Z,1011.36
2018-07-01T07:13:27.596Z,1011.26
2018-07-01T07:14:27.601Z,1011.35
2018-07-01T07:15:27.575Z,1011.36
2018-07-01T07:16:27.568Z,1011.39
2018-07-01T07:17:27.554Z,1011.39
2018-07-01T07:18:27.552Z,1011.37
2018-07-01T07:19:27.546Z,1011.39
2018-07-01T07:20:27.537Z,1011.40
2018-07-01T07:21:27.513Z,1011.34
2018-07-01T07:22:27.504Z,1011.35
2018-07-01T07:23:27.495Z,1011.35
2018-07-01T07:24:27.539Z,1011.39
2018-07-01T07:25:27.492Z,1011.36
2018-07-01T07:26:27.467Z,1011.31
2018-07-01T07:27:27.453Z,1011.40
2018-07-01T07:28:27.443Z,1011.36
2018-07-01T07:29:27.435Z,1011.38
2018-07-01T07:30:27.478Z,1011.36
2018-07-01T07:31:27.427Z,1011.37
2018-07-01T07:32:27.403Z,1011.34
2018-07-01T07:33:27.393Z,1011.41
2018-07-01T07:34:27.386Z,1011.41
2018-07-01T07:35:27.374Z,1011.43
2018-07-01T07:36:27.377Z,1011.39
2018-07-01T07:37:27.356Z,1011.31
2018-07-01T07:38:27.360Z,1011.35
2018-07-01T07:39:27.335Z,1011.43
2018-07-01T07:40:27.324Z,1011.38
2018-07-01T07:41:27.332Z,1011.37
2018-07-01T07:42:27.312Z,1011.35
2018-07-01T07:43:27.300Z,1011.36
2018-07-01T07:44:27.285Z,1011.29
2018-07-01T07:45:27.277Z,1011.36
2018-07-01T07:46:27.270Z,1011.32
2018-07-01T07:47:27.272Z,1011.38
2018-07-01T07:48:27.252Z,1011.35
2018-07-01T07:49:27.237Z,1011.32
2018-07-01T07:50:27.226Z,1011.35
2018-07-01T07:51:27.218Z,1011.39
2018-07-01T07:52:27.235Z,1011.33
2018-07-01T07:53:27.199Z,1011.35
2018-07-01T07:54:27.196Z,1011.40
2018-07-01T07:55:27.180Z,1011.41
2018-07-01T07:56:27.168Z,1011.41
2018-07-01T07:57:27.161Z,1011.33
2018-07-01T07:58:27.164Z,1011.41
2018-07-01T07:59:27.141Z,1011.39
2018-07-01T08:00:27.132Z,1011.48
2018-07-01T08:01:27.121Z,1011.42
2018-07-01T08:02:27.112Z,1011.41
2018-07-01T08:03:27.117Z,1011.40
2018-07-01T08:04:27.092Z,1011.47
2018-07-01T08:05:27.083Z,1011.46
2018-07-01T08:06:27.074Z,1011.48
2018-07-01T08:07:27.138Z,1011.45
2018-07-01T08:08:27.073Z,1011.51
2018-07-01T08:09:27.047Z,1011.53
2018-07-01T08:10:27.038Z,1011.54
2018-07-01T08:11:27.027Z,1011.57
2018-07-01T08:12:27.022Z,1011.53
2018-07-01T08:13:27.008Z,1011.64
2018-07-01T08:14:27.013Z,1011.59
2018-07-01T08:15:26.992Z,1011.56
2018-07-01T08:16:27.000Z,1011.56
2018-07-01T08:17:26.975Z,1011.57
2018-07-01T08:18:26.963Z,1011.62
2018-07-01T08:19:26.975Z,1011.61
2018-07-01T08:20:26.943Z,1011.59
2018-07-01T08:21:26.933Z,1011.62
2018-07-01T08:22:26.925Z,1011.60
2018-07-01T08:23:26.915Z,1011.58
2018-07-01T08:24:26.908Z,1011.61
2018-07-01T08:25:26.922Z,1011.61
2018-07-01T08:26:26.888Z,1011.58
2018-07-01T08:27:26.878Z,1011.62
2018-07-01T08:28:26.869Z,1011.62
2018-07-01T08:29:26.859Z,1011.62
2018-07-01T08:30:26.862Z,1011.59
2018-07-01T08:31:26.841Z,1011.61
2018-07-01T08:32:26.832Z,1011.58
2018-07-01T08:33:26.823Z,1011.61
2018-07-01T08:34:26.863Z,1011.60
2018-07-01T08:35:26.822Z,1011.62
2018-07-01T08:36:26.798Z,1011.60
2018-07-01T08:37:26.785Z,1011.62
2018-07-01T08:38:26.774Z,1011.59
2018-07-01T08:39:26.769Z,1011.64
2018-07-01T08:40:26.759Z,1011.65
2018-07-01T08:41:26.760Z,1011.64
2018-07-01T08:42:26.739Z,1011.62
2018-07-01T08:43:26.731Z,1011.60
2018-07-01T08:44:26.722Z,1011.59
2018-07-01T08:45:26.718Z,1011.61
2018-07-01T08:46:26.724Z,1011.65
2018-07-01T08:47:26.712Z,1011.65
2018-07-01T08:48:26.710Z,1011.76
2018-07-01T08:49:26.678Z,1011.67
2018-07-01T08:50:26.669Z,1011.75
2018-07-01T08:51:26.665Z,1011.72
2018-07-01T08:52:26.693Z,1011.70
2018-07-01T08:53:26.642Z,1011.59
2018-07-01T08:54:26.701Z,1011.65
2018-07-01T08:55:26.627Z,1011.67
2018-07-01T08:56:26.623Z,1011.57
2018-07-01T08:57:26.618Z,1011.62
2018-07-01T08:58:26.597Z,1011.67
2018-07-01T08:59:26.589Z,1011.69
2018-07-01T09:00:26.580Z,1011.73
2018-07-01T09:01:26.570Z,1011.78
2018-07-01T09:02:26.581Z,1011.71
2018-07-01T09:03:26.565Z,1011.76
2018-07-01T09:04:26.542Z,1011.73
2018-07-01T09:05:26.534Z,1011.66
2018-07-01T09:06:26.527Z,1011.80
2018-07-01T09:07:26.515Z,1011.72
2018-07-01T09:08:26.533Z,1011.78
2018-07-01T09:09:26.505Z,1011.86
2018-07-01T09:10:26.489Z,1011.82
2018-07-01T09:11:26.481Z,1011.79
2018-07-01T09:12:26.470Z,1011.71
2018-07-01T09:13:26.488Z,1011.67
2018-07-01T09:14:26.456Z,1011.72
2018-07-01T09:15:26.466Z,1011.69
2018-07-01T09:16:26.440Z,1011.72
2018-07-01T09:17:26.431Z,1011.76
2018-07-01T09:18:26.420Z,1011.78
2018-07-01T09:19:26.446Z,1011.69
2018-07-01T09:20:26.405Z,1011.77
2018-07-01T09:21:26.392Z,1011.77
2018-07-01T09:22:26.385Z,1011.80
2018-07-01T09:23:26.413Z,1011.75
2018-07-01T09:24:26.388Z,1011.79
2018-07-01T09:25:26.384Z,1011.68
2018-07-01T09:26:26.353Z,1011.73
2018-07-01T09:27:26.359Z,1011.73
2018-07-01T09:28:26.331Z,1011.72
2018-07-01T09:29:26.779Z,1011.71
2018-07-01T09:30:26.315Z,1011.73
2018-07-01T09:31:26.311Z,1011.72
2018-07-01T09:32:26.296Z,1011.73
2018-07-01T09:33:26.289Z,1011.70
2018-07-01T09:34:26.378Z,1011.70
2018-07-01T09:35:26.289Z,1011.70
2018-07-01T09:36:26.269Z,1011.64
2018-07-01T09:37:26.282Z,1011.67
2018-07-01T09:38:26.252Z,1011.61
2018-07-01T09:39:26.239Z,1011.57
2018-07-01T09:40:26.249Z,1011.58
2018-07-01T09:41:26.226Z,1011.66
2018-07-01T09:42:26.216Z,1011.66
2018-07-01T09:43:26.255Z,1011.68
2018-07-01T09:44:26.237Z,1011.70
2018-07-01T09:45:26.187Z,1011.66
2018-07-01T09:46:26.193Z,1011.67
2018-07-01T09:47:26.254Z,1011.66
2018-07-01T09:48:26.163Z,1011.70
2018-07-01T09:49:26.179Z,1011.68
2018-07-01T09:50:26.237Z,1011.65
2018-07-01T09:51:26.177Z,1011.64
2018-07-01T09:52:26.132Z,1011.72
2018-07-01T09:53:26.139Z,1011.66
2018-07-01T09:54:26.122Z,1011.62
2018-07-01T09:55:26.109Z,1011.61
2018-07-01T09:56:26.099Z,1011.66
2018-07-01T09:57:26.102Z,1011.66
2018-07-01T09:58:26.082Z,1011.61
2018-07-01T09:59:26.075Z,1011.61
2018-07-01T10:00:26.061Z,1011.63
2018-07-01T10:01:26.061Z,1011.62
2018-07-01T10:02:26.062Z,1011.57
2018-07-01T10:03:26.040Z,1011.56
2018-07-01T10:04:26.031Z,1011.50
2018-07-01T10:05:26.022Z,1011.54
2018-07-01T10:06:26.021Z,1011.49
2018-07-01T10:07:26.048Z,1011.51
2018-07-01T10:08:26.063Z,1011.58
2018-07-01T10:09:25.986Z,1011.58
2018-07-01T10:10:25.985Z,1011.62
2018-07-01T10:11:25.971Z,1011.63
2018-07-01T10:12:25.967Z,1011.66
2018-07-01T10:13:25.966Z,1011.63
2018-07-01T10:14:25.948Z,1011.62
2018-07-01T10:15:25.943Z,1011.65
2018-07-01T10:16:25.929Z,1011.62
2018-07-01T10:17:25.922Z,1011.59
2018-07-01T10:18:25.945Z,1011.52
2018-07-01T10:19:25.905Z,1011.54
2018-07-01T10:20:25.899Z,1011.51
2018-07-01T10:21:25.883Z,1011.53
2018-07-01T10:22:25.881Z,1011.54
2018-07-01T10:23:25.866Z,1011.49
2018-07-01T10:24:25.874Z,1011.53
2018-07-01T10:25:25.852Z,1011.52
2018-07-01T10:26:25.876Z,1011.47
2018-07-01T10:27:25.831Z,1011.46
2018-07-01T10:28:25.823Z,1011.40
2018-07-01T10:29:25.830Z,1011.39
2018-07-01T10:30:25.804Z,1011.38
2018-07-01T10:31:25.796Z,1011.43
2018-07-01T10:32:25.817Z,1011.40
2018-07-01T10:33:25.779Z,1011.42
2018-07-01T10:34:25.792Z,1011.39
2018-07-01T10:35:25.769Z,1011.33
2018-07-01T10:36:25.756Z,1011.32
2018-07-01T10:37:25.746Z,1011.30
2018-07-01T10:38:25.742Z,1011.30
2018-07-01T10:39:25.751Z,1011.26
2018-07-01T10:40:25.720Z,1011.34
2018-07-01T10:41:25.715Z,1011.35
2018-07-01T10:42:25.716Z,1011.34
2018-07-01T10:43:25.695Z,1011.27
2018-07-01T10:44:25.687Z,1011.30
2018-07-01T10:45:25.690Z,1011.25
2018-07-01T10:46:25.673Z,1011.27
2018-07-01T10:47:25.664Z,1011.32
2018-07-01T10:48:25.659Z,1011.31
2018-07-01T10:49:25.653Z,1011.32
2018-07-01T10:50:25.656Z,1011.28
2018-07-01T10:51:25.714Z,1011.31
2018-07-01T10:52:25.622Z,1011.30
2018-07-01T10:53:25.642Z,1011.33
2018-07-01T10:54:25.603Z,1011.37
2018-07-01T10:55:25.608Z,1011.34
2018-07-01T10:56:25.614Z,1011.25
2018-07-01T10:57:25.586Z,1011.35
2018-07-01T10:58:25.571Z,1011.34
2018-07-01T10:59:25.654Z,1011.34
2018-07-01T11:00:25.557Z,1011.37
2018-07-01T11:01:25.560Z,1011.33
2018-07-01T11:02:25.540Z,1011.35
2018-07-01T11:03:25.530Z,1011.29
2018-07-01T11:04:25.545Z,1011.33
2018-07-01T11:05:25.515Z,1011.30
2018-07-01T11:06:25.658Z,1011.40
2018-07-01T11:07:25.505Z,1011.26
2018-07-01T11:08:25.494Z,1011.28
2018-07-01T11:09:25.485Z,1011.24
2018-07-01T11:10:25.557Z,1011.23
2018-07-01T11:11:25.465Z,1011.20
2018-07-01T11:12:25.472Z,1011.20
2018-07-01T11:13:25.451Z,1011.21
2018-07-01T11:14:25.461Z,1011.17
2018-07-01T11:15:25.435Z,1011.21
2018-07-01T11:16:25.426Z,1011.17
2018-07-01T11:17:25.435Z,1011.11
2018-07-01T11:18:25.417Z,1011.17
2018-07-01T11:19:25.398Z,1011.15
2018-07-01T11:20:25.506Z,1011.15
2018-07-01T11:21:25.388Z,1011.14
2018-07-01T11:22:25.380Z,1011.08
2018-07-01T11:23:25.390Z,1011.05
2018-07-01T11:24:25.363Z,1011.06
2018-07-01T11:25:25.349Z,1011.06
2018-07-01T11:26:25.348Z,1011.05
2018-07-01T11:27:25.434Z,1011.04
2018-07-01T11:28:25.365Z,1011.02
2018-07-01T11:29:25.317Z,1010.92
2018-07-01T11:30:25.307Z,1010.99
2018-07-01T11:31:25.297Z,1011.04
2018-07-01T11:32:25.291Z,1011.05
2018-07-01T11:33:25.303Z,1011.04
2018-07-01T11:34:25.282Z,1010.97
2018-07-01T11:35:25.265Z,1010.96
2018-07-01T11:36:25.256Z,1010.93
2018-07-01T11:37:25.252Z,1010.91
2018-07-01T11:38:25.240Z,1010.92
2018-07-01T11:39:25.254Z,1010.97
2018-07-01T11:40:25.227Z,1010.87
2018-07-01T11:41:25.216Z,1010.90
2018-07-01T11:42:25.265Z,1010.88
2018-07-01T11:43:25.198Z,1010.90
2018-07-01T11:44:25.209Z,1010.87
2018-07-01T11:45:25.181Z,1010.87
2018-07-01T11:46:25.172Z,1010.82
2018-07-01T11:47:25.168Z,1010.80
2018-07-01T11:48:25.161Z,1010.76
2018-07-01T11:49:25.169Z,1010.72
2018-07-01T11:50:25.155Z,1010.70
2018-07-01T11:51:25.130Z,1010.55
2018-07-01T11:52:25.149Z,1010.40
2018-07-01T11:53:25.113Z,1010.28
2018-07-01T11:54:25.110Z,1010.19
2018-07-01T11:55:25.102Z,1010.13
2018-07-01T11:56:25.082Z,1010.11
2018-07-01T11:57:25.077Z,1010.07
2018-07-01T11:58:25.080Z,1010.10
2018-07-01T11:59:25.056Z,1010.06
2018-07-01T12:00:25.075Z,1010.03
2018-07-01T12:01:25.049Z,1010.05
2018-07-01T12:02:25.023Z,1010.04
2018-07-01T12:03:25.014Z,1009.94
2018-07-01T12:04:25.002Z,1010.01
2018-07-01T12:05:25.063Z,1009.99